sensor_id;sensor_type;location;lat;lon;timestamp;temperature;humidity
33831;DHT22;20137;48.834;8.732;2023-03-29T00:01:58;4.00;99.90
33831;DHT22;20137;48.834;8.732;2023-03-29T00:04:24;4.00;99.90
33831;DHT22;20137;48.834;8.732;2023-03-29T00:06:54;4.00;99.90
33831;DHT22;20137;48.834;8.732;2023-03-29T00:09:20;4.00;99.90
33831;DHT22;20137;48.834;8.732;2023-03-29T00:11:46;4.00;99.90
33831;DHT22;20137;48.834;8.732;2023-03-29T00:14:12;4.00;99.90
33831;DHT22;20137;48.834;8.732;2023-03-29T00:16:38;4.10;99.90
33831;DHT22;20137;48.834;8.732;2023-03-29T00:19:04;4.00;99.90
33831;DHT22;20137;48.834;8.732;2023-03-29T00:21:30;4.20;99.90
33831;DHT22;20137;48.834;8.732;2023-03-29T00:23:56;4.10;99.90
33831;DHT22;20137;48.834;8.732;2023-03-29T00:26:22;4.10;99.90
33831;DHT22;20137;48.834;8.732;2023-03-29T00:28:48;4.10;99.90
33831;DHT22;20137;48.834;8.732;2023-03-29T00:31:15;4.10;99.90
33831;DHT22;20137;48.834;8.732;2023-03-29T00:33:42;4.20;99.90
33831;DHT22;20137;48.834;8.732;2023-03-29T00:36:10;4.20;99.90
33831;DHT22;20137;48.834;8.732;2023-03-29T00:38:37;4.10;99.90
33831;DHT22;20137;48.834;8.732;2023-03-29T00:41:12;4.20;99.90
33831;DHT22;20137;48.834;8.732;2023-03-29T00:44:01;4.10;99.90
33831;DHT22;20137;48.834;8.732;2023-03-29T00:46:29;4.20;99.90
33831;DHT22;20137;48.834;8.732;2023-03-29T00:49:10;4.10;99.90
33831;DHT22;20137;48.834;8.732;2023-03-29T00:51:41;4.10;99.90
33831;DHT22;20137;48.834;8.732;2023-03-29T00:54:11;4.10;99.90
33831;DHT22;20137;48.834;8.732;2023-03-29T00:56:40;4.10;99.90
33831;DHT22;20137;48.834;8.732;2023-03-29T00:59:16;4.20;99.90
33831;DHT22;20137;48.834;8.732;2023-03-29T01:01:52;4.20;99.90
33831;DHT22;20137;48.834;8.732;2023-03-29T01:04:24;4.20;99.90
33831;DHT22;20137;48.834;8.732;2023-03-29T01:07:03;4.20;99.90
33831;DHT22;20137;48.834;8.732;2023-03-29T01:09:34;4.20;99.90
33831;DHT22;20137;48.834;8.732;2023-03-29T01:12:07;4.20;99.90
33831;DHT22;20137;48.834;8.732;2023-03-29T01:14:40;4.20;99.90
33831;DHT22;20137;48.834;8.732;2023-03-29T01:17:07;4.20;99.90
33831;DHT22;20137;48.834;8.732;2023-03-29T01:19:41;4.20;99.90
33831;DHT22;20137;48.834;8.732;2023-03-29T01:22:27;4.10;99.90
33831;DHT22;20137;48.834;8.732;2023-03-29T01:27:52;4.20;99.90
33831;DHT22;20137;48.834;8.732;2023-03-29T01:30:32;4.20;99.90
33831;DHT22;20137;48.834;8.732;2023-03-29T01:33:05;4.30;99.90
33831;DHT22;20137;48.834;8.732;2023-03-29T01:38:22;4.20;99.90
33831;DHT22;20137;48.834;8.732;2023-03-29T01:40:48;4.20;99.90
33831;DHT22;20137;48.834;8.732;2023-03-29T01:46:07;4.30;99.90
33831;DHT22;20137;48.834;8.732;2023-03-29T01:51:24;4.30;99.90
33831;DHT22;20137;48.834;8.732;2023-03-29T01:54:04;4.30;99.90
33831;DHT22;20137;48.834;8.732;2023-03-29T01:56:35;4.30;99.90
33831;DHT22;20137;48.834;8.732;2023-03-29T01:59:07;4.30;99.90
33831;DHT22;20137;48.834;8.732;2023-03-29T02:01:39;4.20;99.90
33831;DHT22;20137;48.834;8.732;2023-03-29T02:04:09;4.20;99.90
33831;DHT22;20137;48.834;8.732;2023-03-29T02:06:38;4.20;99.90
33831;DHT22;20137;48.834;8.732;2023-03-29T02:09:05;4.10;99.90
33831;DHT22;20137;48.834;8.732;2023-03-29T02:11:32;4.20;99.90
33831;DHT22;20137;48.834;8.732;2023-03-29T02:13:59;4.10;99.90
33831;DHT22;20137;48.834;8.732;2023-03-29T02:16:25;4.20;99.90
33831;DHT22;20137;48.834;8.732;2023-03-29T02:18:52;4.20;99.90
33831;DHT22;20137;48.834;8.732;2023-03-29T02:21:29;4.20;99.90
33831;DHT22;20137;48.834;8.732;2023-03-29T02:23:58;4.30;99.90
33831;DHT22;20137;48.834;8.732;2023-03-29T02:26:27;4.40;99.90
33831;DHT22;20137;48.834;8.732;2023-03-29T02:28:54;4.40;99.90
33831;DHT22;20137;48.834;8.732;2023-03-29T02:31:29;4.40;99.90
33831;DHT22;20137;48.834;8.732;2023-03-29T02:36:41;4.50;99.90
33831;DHT22;20137;48.834;8.732;2023-03-29T02:39:09;4.40;99.90
33831;DHT22;20137;48.834;8.732;2023-03-29T02:41:38;4.50;99.90
33831;DHT22;20137;48.834;8.732;2023-03-29T02:44:06;4.30;99.90
33831;DHT22;20137;48.834;8.732;2023-03-29T02:46:34;4.20;99.90
33831;DHT22;20137;48.834;8.732;2023-03-29T02:49:02;4.20;99.90
33831;DHT22;20137;48.834;8.732;2023-03-29T02:51:33;4.10;99.90
33831;DHT22;20137;48.834;8.732;2023-03-29T02:54:10;4.00;99.90
33831;DHT22;20137;48.834;8.732;2023-03-29T02:59:08;4.00;99.90
33831;DHT22;20137;48.834;8.732;2023-03-29T03:01:34;4.00;99.90
33831;DHT22;20137;48.834;8.732;2023-03-29T03:04:01;4.00;99.90
33831;DHT22;20137;48.834;8.732;2023-03-29T03:06:27;4.10;99.90
33831;DHT22;20137;48.834;8.732;2023-03-29T03:08:53;4.10;99.90
33831;DHT22;20137;48.834;8.732;2023-03-29T03:11:19;4.20;99.90
33831;DHT22;20137;48.834;8.732;2023-03-29T03:13:45;4.20;99.90
33831;DHT22;20137;48.834;8.732;2023-03-29T03:16:11;4.20;99.90
33831;DHT22;20137;48.834;8.732;2023-03-29T03:18:36;4.20;99.90
33831;DHT22;20137;48.834;8.732;2023-03-29T03:21:03;4.30;99.90
33831;DHT22;20137;48.834;8.732;2023-03-29T03:23:29;4.30;99.90
33831;DHT22;20137;48.834;8.732;2023-03-29T03:25:55;4.40;99.90
33831;DHT22;20137;48.834;8.732;2023-03-29T03:28:22;4.40;99.90
33831;DHT22;20137;48.834;8.732;2023-03-29T03:30:49;4.50;99.90
33831;DHT22;20137;48.834;8.732;2023-03-29T03:33:14;4.60;99.90
33831;DHT22;20137;48.834;8.732;2023-03-29T03:35:41;4.50;99.90
33831;DHT22;20137;48.834;8.732;2023-03-29T03:38:07;4.50;99.90
33831;DHT22;20137;48.834;8.732;2023-03-29T03:40:33;4.50;99.90
33831;DHT22;20137;48.834;8.732;2023-03-29T03:42:59;4.50;99.90
33831;DHT22;20137;48.834;8.732;2023-03-29T03:45:24;4.50;99.90
33831;DHT22;20137;48.834;8.732;2023-03-29T03:47:50;4.50;99.90
33831;DHT22;20137;48.834;8.732;2023-03-29T03:50:16;4.50;99.90
33831;DHT22;20137;48.834;8.732;2023-03-29T03:52:43;4.60;99.90
33831;DHT22;20137;48.834;8.732;2023-03-29T03:55:09;4.70;99.90
33831;DHT22;20137;48.834;8.732;2023-03-29T03:57:35;4.60;99.90
33831;DHT22;20137;48.834;8.732;2023-03-29T04:00:04;4.70;99.90
33831;DHT22;20137;48.834;8.732;2023-03-29T04:02:44;4.70;99.90
33831;DHT22;20137;48.834;8.732;2023-03-29T04:05:10;4.60;99.90
33831;DHT22;20137;48.834;8.732;2023-03-29T04:07:36;4.60;99.90
33831;DHT22;20137;48.834;8.732;2023-03-29T04:10:03;4.60;99.90
33831;DHT22;20137;48.834;8.732;2023-03-29T04:12:28;4.60;99.90
33831;DHT22;20137;48.834;8.732;2023-03-29T04:14:54;4.40;99.90
33831;DHT22;20137;48.834;8.732;2023-03-29T04:17:20;4.40;99.90
33831;DHT22;20137;48.834;8.732;2023-03-29T04:19:46;4.40;99.90
33831;DHT22;20137;48.834;8.732;2023-03-29T04:22:12;4.40;99.90
33831;DHT22;20137;48.834;8.732;2023-03-29T04:24:38;4.50;99.90
33831;DHT22;20137;48.834;8.732;2023-03-29T04:27:04;4.50;99.90
33831;DHT22;20137;48.834;8.732;2023-03-29T04:29:30;4.60;99.90
33831;DHT22;20137;48.834;8.732;2023-03-29T04:31:55;4.60;99.90
33831;DHT22;20137;48.834;8.732;2023-03-29T04:34:21;4.70;99.90
33831;DHT22;20137;48.834;8.732;2023-03-29T04:36:47;4.80;99.90
33831;DHT22;20137;48.834;8.732;2023-03-29T04:39:15;4.90;99.90
33831;DHT22;20137;48.834;8.732;2023-03-29T04:41:45;5.00;99.90
33831;DHT22;20137;48.834;8.732;2023-03-29T04:44:11;5.00;99.90
33831;DHT22;20137;48.834;8.732;2023-03-29T04:46:39;5.00;99.90
33831;DHT22;20137;48.834;8.732;2023-03-29T04:49:05;5.10;99.90
33831;DHT22;20137;48.834;8.732;2023-03-29T04:51:31;5.10;99.90
33831;DHT22;20137;48.834;8.732;2023-03-29T04:53:57;5.10;99.90
33831;DHT22;20137;48.834;8.732;2023-03-29T04:56:23;5.20;99.90
33831;DHT22;20137;48.834;8.732;2023-03-29T04:58:49;5.20;99.90
33831;DHT22;20137;48.834;8.732;2023-03-29T05:01:15;5.20;99.90
33831;DHT22;20137;48.834;8.732;2023-03-29T05:03:41;5.20;99.90
33831;DHT22;20137;48.834;8.732;2023-03-29T05:06:09;5.30;99.90
33831;DHT22;20137;48.834;8.732;2023-03-29T05:08:37;5.30;99.90
33831;DHT22;20137;48.834;8.732;2023-03-29T05:11:12;5.40;99.90
33831;DHT22;20137;48.834;8.732;2023-03-29T05:13:38;5.40;99.90
33831;DHT22;20137;48.834;8.732;2023-03-29T05:16:05;5.50;99.90
33831;DHT22;20137;48.834;8.732;2023-03-29T05:18:32;5.50;99.90
33831;DHT22;20137;48.834;8.732;2023-03-29T05:20:58;5.50;99.90
33831;DHT22;20137;48.834;8.732;2023-03-29T05:23:24;5.60;99.90
33831;DHT22;20137;48.834;8.732;2023-03-29T05:25:51;5.60;99.90
33831;DHT22;20137;48.834;8.732;2023-03-29T05:28:18;5.60;99.90
33831;DHT22;20137;48.834;8.732;2023-03-29T05:30:44;5.60;99.90
33831;DHT22;20137;48.834;8.732;2023-03-29T05:33:13;5.60;99.90
33831;DHT22;20137;48.834;8.732;2023-03-29T05:35:39;5.50;99.90
33831;DHT22;20137;48.834;8.732;2023-03-29T05:38:04;5.60;99.90
33831;DHT22;20137;48.834;8.732;2023-03-29T05:40:31;5.50;99.90
33831;DHT22;20137;48.834;8.732;2023-03-29T05:42:57;5.50;99.90
33831;DHT22;20137;48.834;8.732;2023-03-29T05:45:24;5.60;99.90
33831;DHT22;20137;48.834;8.732;2023-03-29T05:47:52;5.50;99.90
33831;DHT22;20137;48.834;8.732;2023-03-29T05:50:18;5.50;99.90
33831;DHT22;20137;48.834;8.732;2023-03-29T05:52:44;5.60;99.90
33831;DHT22;20137;48.834;8.732;2023-03-29T05:55:10;5.60;99.90
33831;DHT22;20137;48.834;8.732;2023-03-29T05:57:36;5.60;99.90
33831;DHT22;20137;48.834;8.732;2023-03-29T06:00:09;5.60;99.90
33831;DHT22;20137;48.834;8.732;2023-03-29T06:02:46;5.70;99.90
33831;DHT22;20137;48.834;8.732;2023-03-29T06:05:12;5.70;99.90
33831;DHT22;20137;48.834;8.732;2023-03-29T06:07:38;5.70;99.90
33831;DHT22;20137;48.834;8.732;2023-03-29T06:10:05;5.80;99.90
33831;DHT22;20137;48.834;8.732;2023-03-29T06:12:30;5.90;99.90
33831;DHT22;20137;48.834;8.732;2023-03-29T06:14:57;6.00;99.90
33831;DHT22;20137;48.834;8.732;2023-03-29T06:17:27;6.20;99.90
33831;DHT22;20137;48.834;8.732;2023-03-29T06:19:53;6.30;99.90
33831;DHT22;20137;48.834;8.732;2023-03-29T06:22:19;6.40;99.90
33831;DHT22;20137;48.834;8.732;2023-03-29T06:24:45;6.50;99.90
33831;DHT22;20137;48.834;8.732;2023-03-29T06:27:10;6.60;99.90
33831;DHT22;20137;48.834;8.732;2023-03-29T06:29:36;6.70;99.90
33831;DHT22;20137;48.834;8.732;2023-03-29T06:32:02;6.70;99.90
33831;DHT22;20137;48.834;8.732;2023-03-29T06:34:28;6.90;99.90
33831;DHT22;20137;48.834;8.732;2023-03-29T06:36:53;7.00;99.90
33831;DHT22;20137;48.834;8.732;2023-03-29T06:39:19;7.10;99.90
33831;DHT22;20137;48.834;8.732;2023-03-29T06:41:45;7.10;99.90
33831;DHT22;20137;48.834;8.732;2023-03-29T06:44:10;7.20;99.90
33831;DHT22;20137;48.834;8.732;2023-03-29T06:46:36;7.30;99.90
33831;DHT22;20137;48.834;8.732;2023-03-29T06:49:02;7.30;99.90
33831;DHT22;20137;48.834;8.732;2023-03-29T06:51:27;7.40;99.90
33831;DHT22;20137;48.834;8.732;2023-03-29T06:53:53;7.50;99.90
33831;DHT22;20137;48.834;8.732;2023-03-29T06:56:19;7.50;99.90
33831;DHT22;20137;48.834;8.732;2023-03-29T06:58:46;7.60;99.90
33831;DHT22;20137;48.834;8.732;2023-03-29T07:01:13;7.70;99.90
33831;DHT22;20137;48.834;8.732;2023-03-29T07:03:39;7.70;99.90
33831;DHT22;20137;48.834;8.732;2023-03-29T07:06:05;7.80;99.90
33831;DHT22;20137;48.834;8.732;2023-03-29T07:08:38;8.00;99.90
33831;DHT22;20137;48.834;8.732;2023-03-29T07:11:13;8.10;99.90
33831;DHT22;20137;48.834;8.732;2023-03-29T07:13:39;8.20;99.90
33831;DHT22;20137;48.834;8.732;2023-03-29T07:16:10;8.30;99.90
33831;DHT22;20137;48.834;8.732;2023-03-29T07:18:41;8.40;99.90
33831;DHT22;20137;48.834;8.732;2023-03-29T07:21:09;8.40;99.90
33831;DHT22;20137;48.834;8.732;2023-03-29T07:23:40;8.40;99.90
33831;DHT22;20137;48.834;8.732;2023-03-29T07:26:06;8.50;99.90
33831;DHT22;20137;48.834;8.732;2023-03-29T07:28:32;8.50;99.90
33831;DHT22;20137;48.834;8.732;2023-03-29T07:31:09;8.50;99.90
33831;DHT22;20137;48.834;8.732;2023-03-29T07:33:39;8.60;99.90
33831;DHT22;20137;48.834;8.732;2023-03-29T07:36:05;8.60;99.90
33831;DHT22;20137;48.834;8.732;2023-03-29T07:38:31;8.60;99.90
33831;DHT22;20137;48.834;8.732;2023-03-29T07:40:57;8.70;99.90
33831;DHT22;20137;48.834;8.732;2023-03-29T07:43:23;8.80;99.90
33831;DHT22;20137;48.834;8.732;2023-03-29T07:45:50;9.00;99.90
33831;DHT22;20137;48.834;8.732;2023-03-29T07:48:17;9.10;99.90
33831;DHT22;20137;48.834;8.732;2023-03-29T07:50:44;9.30;99.90
33831;DHT22;20137;48.834;8.732;2023-03-29T07:53:10;9.40;99.90
33831;DHT22;20137;48.834;8.732;2023-03-29T07:55:36;9.60;99.90
33831;DHT22;20137;48.834;8.732;2023-03-29T07:58:02;9.80;99.90
33831;DHT22;20137;48.834;8.732;2023-03-29T08:00:28;9.80;99.90
33831;DHT22;20137;48.834;8.732;2023-03-29T08:02:54;9.80;99.90
33831;DHT22;20137;48.834;8.732;2023-03-29T08:05:21;9.90;99.90
33831;DHT22;20137;48.834;8.732;2023-03-29T08:07:47;9.80;99.90
33831;DHT22;20137;48.834;8.732;2023-03-29T08:10:20;9.80;99.90
33831;DHT22;20137;48.834;8.732;2023-03-29T08:12:47;9.70;99.90
33831;DHT22;20137;48.834;8.732;2023-03-29T08:15:14;9.80;99.90
33831;DHT22;20137;48.834;8.732;2023-03-29T08:17:41;9.80;99.90
33831;DHT22;20137;48.834;8.732;2023-03-29T08:20:10;9.90;99.90
33831;DHT22;20137;48.834;8.732;2023-03-29T08:22:36;10.00;99.90
33831;DHT22;20137;48.834;8.732;2023-03-29T08:25:03;10.00;99.90
33831;DHT22;20137;48.834;8.732;2023-03-29T08:27:29;10.20;99.90
33831;DHT22;20137;48.834;8.732;2023-03-29T08:29:55;10.40;99.90
33831;DHT22;20137;48.834;8.732;2023-03-29T08:32:21;10.60;99.90
33831;DHT22;20137;48.834;8.732;2023-03-29T08:34:46;10.70;99.90
33831;DHT22;20137;48.834;8.732;2023-03-29T08:37:13;10.80;99.90
33831;DHT22;20137;48.834;8.732;2023-03-29T08:39:39;10.80;99.90
33831;DHT22;20137;48.834;8.732;2023-03-29T08:45:12;10.80;99.90
33831;DHT22;20137;48.834;8.732;2023-03-29T08:47:55;11.00;99.90
33831;DHT22;20137;48.834;8.732;2023-03-29T08:50:34;11.10;99.90
33831;DHT22;20137;48.834;8.732;2023-03-29T08:53:08;11.20;99.90
33831;DHT22;20137;48.834;8.732;2023-03-29T08:55:40;11.30;99.90
33831;DHT22;20137;48.834;8.732;2023-03-29T08:58:12;11.40;99.90
33831;DHT22;20137;48.834;8.732;2023-03-29T09:00:42;11.60;99.90
33831;DHT22;20137;48.834;8.732;2023-03-29T09:03:33;11.60;99.90
33831;DHT22;20137;48.834;8.732;2023-03-29T09:06:04;11.70;99.90
33831;DHT22;20137;48.834;8.732;2023-03-29T09:08:40;11.70;99.90
33831;DHT22;20137;48.834;8.732;2023-03-29T09:20:28;12.40;99.90
33831;DHT22;20137;48.834;8.732;2023-03-29T09:28:15;12.80;99.90
33831;DHT22;20137;48.834;8.732;2023-03-29T09:33:46;13.00;99.90
33831;DHT22;20137;48.834;8.732;2023-03-29T09:39:09;13.60;99.90
33831;DHT22;20137;48.834;8.732;2023-03-29T09:44:26;13.80;99.90
33831;DHT22;20137;48.834;8.732;2023-03-29T09:47:02;13.90;99.90
33831;DHT22;20137;48.834;8.732;2023-03-29T09:49:33;13.90;99.90
33831;DHT22;20137;48.834;8.732;2023-03-29T09:52:04;13.90;99.90
33831;DHT22;20137;48.834;8.732;2023-03-29T09:54:33;13.90;99.90
33831;DHT22;20137;48.834;8.732;2023-03-29T09:56:58;13.90;99.90
33831;DHT22;20137;48.834;8.732;2023-03-29T09:59:24;14.10;99.90
33831;DHT22;20137;48.834;8.732;2023-03-29T10:01:50;14.20;99.90
33831;DHT22;20137;48.834;8.732;2023-03-29T10:04:16;14.40;99.90
33831;DHT22;20137;48.834;8.732;2023-03-29T10:06:47;14.40;99.60
33831;DHT22;20137;48.834;8.732;2023-03-29T10:09:19;14.30;99.30
33831;DHT22;20137;48.834;8.732;2023-03-29T10:11:50;14.30;99.80
33831;DHT22;20137;48.834;8.732;2023-03-29T10:14:22;14.30;99.80
33831;DHT22;20137;48.834;8.732;2023-03-29T10:16:55;14.30;98.60
33831;DHT22;20137;48.834;8.732;2023-03-29T10:19:26;14.10;99.80
33831;DHT22;20137;48.834;8.732;2023-03-29T10:21:53;14.20;99.30
33831;DHT22;20137;48.834;8.732;2023-03-29T10:24:25;14.10;99.20
33831;DHT22;20137;48.834;8.732;2023-03-29T10:26:56;14.20;99.00
33831;DHT22;20137;48.834;8.732;2023-03-29T10:29:23;14.40;98.60
33831;DHT22;20137;48.834;8.732;2023-03-29T10:31:50;14.20;99.00
33831;DHT22;20137;48.834;8.732;2023-03-29T10:34:17;14.30;98.90
33831;DHT22;20137;48.834;8.732;2023-03-29T10:37:01;14.30;98.70
33831;DHT22;20137;48.834;8.732;2023-03-29T10:39:31;14.20;98.80
33831;DHT22;20137;48.834;8.732;2023-03-29T10:41:58;14.10;98.90
33831;DHT22;20137;48.834;8.732;2023-03-29T10:44:29;14.30;99.10
33831;DHT22;20137;48.834;8.732;2023-03-29T10:47:06;14.50;99.30
33831;DHT22;20137;48.834;8.732;2023-03-29T10:49:39;14.50;97.90
33831;DHT22;20137;48.834;8.732;2023-03-29T10:52:06;14.40;97.40
33831;DHT22;20137;48.834;8.732;2023-03-29T10:54:31;14.30;98.00
33831;DHT22;20137;48.834;8.732;2023-03-29T10:57:00;14.40;97.40
33831;DHT22;20137;48.834;8.732;2023-03-29T10:59:37;14.30;97.20
33831;DHT22;20137;48.834;8.732;2023-03-29T11:10:31;14.20;97.70
33831;DHT22;20137;48.834;8.732;2023-03-29T11:18:44;14.60;96.90
33831;DHT22;20137;48.834;8.732;2023-03-29T11:26:26;15.00;95.00
33831;DHT22;20137;48.834;8.732;2023-03-29T11:29:08;14.80;95.70
33831;DHT22;20137;48.834;8.732;2023-03-29T11:31:47;14.80;95.30
33831;DHT22;20137;48.834;8.732;2023-03-29T11:43:11;15.30;94.40
33831;DHT22;20137;48.834;8.732;2023-03-29T11:45:48;15.10;94.80
33831;DHT22;20137;48.834;8.732;2023-03-29T11:48:21;15.00;95.50
33831;DHT22;20137;48.834;8.732;2023-03-29T11:50:56;14.90;95.40
33831;DHT22;20137;48.834;8.732;2023-03-29T11:53:28;15.00;96.30
33831;DHT22;20137;48.834;8.732;2023-03-29T11:55:59;15.10;96.10
33831;DHT22;20137;48.834;8.732;2023-03-29T11:58:32;15.20;95.80
33831;DHT22;20137;48.834;8.732;2023-03-29T12:01:28;15.10;95.40
33831;DHT22;20137;48.834;8.732;2023-03-29T12:04:23;15.20;95.70
33831;DHT22;20137;48.834;8.732;2023-03-29T12:09:49;14.90;95.10
33831;DHT22;20137;48.834;8.732;2023-03-29T12:12:23;14.80;96.00
33831;DHT22;20137;48.834;8.732;2023-03-29T12:17:26;14.70;95.50
33831;DHT22;20137;48.834;8.732;2023-03-29T12:22:23;14.70;96.00
33831;DHT22;20137;48.834;8.732;2023-03-29T12:24:50;14.90;96.10
33831;DHT22;20137;48.834;8.732;2023-03-29T12:27:38;14.90;96.50
33831;DHT22;20137;48.834;8.732;2023-03-29T12:38:31;15.00;96.90
33831;DHT22;20137;48.834;8.732;2023-03-29T12:40:59;14.80;96.70
33831;DHT22;20137;48.834;8.732;2023-03-29T12:43:27;14.70;97.30
33831;DHT22;20137;48.834;8.732;2023-03-29T12:46:00;14.80;97.90
33831;DHT22;20137;48.834;8.732;2023-03-29T12:48:30;14.60;98.50
33831;DHT22;20137;48.834;8.732;2023-03-29T12:51:29;14.60;98.30
33831;DHT22;20137;48.834;8.732;2023-03-29T12:54:10;14.40;98.50
33831;DHT22;20137;48.834;8.732;2023-03-29T12:59:45;14.30;99.40
33831;DHT22;20137;48.834;8.732;2023-03-29T13:10:00;14.40;98.90
33831;DHT22;20137;48.834;8.732;2023-03-29T13:15:04;14.40;99.10
33831;DHT22;20137;48.834;8.732;2023-03-29T13:20:39;14.50;99.60
33831;DHT22;20137;48.834;8.732;2023-03-29T13:29:08;14.20;99.90
33831;DHT22;20137;48.834;8.732;2023-03-29T13:31:43;14.10;99.90
33831;DHT22;20137;48.834;8.732;2023-03-29T13:39:50;14.00;99.90
33831;DHT22;20137;48.834;8.732;2023-03-29T13:45:22;14.20;99.90
33831;DHT22;20137;48.834;8.732;2023-03-29T13:48:00;14.30;99.90
33831;DHT22;20137;48.834;8.732;2023-03-29T13:50:52;14.40;99.90
33831;DHT22;20137;48.834;8.732;2023-03-29T13:53:54;14.50;99.90
33831;DHT22;20137;48.834;8.732;2023-03-29T13:56:24;14.70;99.90
33831;DHT22;20137;48.834;8.732;2023-03-29T13:58:53;14.80;99.90
33831;DHT22;20137;48.834;8.732;2023-03-29T14:01:26;14.90;99.90
33831;DHT22;20137;48.834;8.732;2023-03-29T14:03:53;15.00;99.90
33831;DHT22;20137;48.834;8.732;2023-03-29T14:06:29;14.90;99.90
33831;DHT22;20137;48.834;8.732;2023-03-29T14:08:56;15.00;99.80
33831;DHT22;20137;48.834;8.732;2023-03-29T14:11:26;15.20;99.10
33831;DHT22;20137;48.834;8.732;2023-03-29T14:14:00;15.40;98.90
33831;DHT22;20137;48.834;8.732;2023-03-29T14:16:30;15.50;99.10
33831;DHT22;20137;48.834;8.732;2023-03-29T14:19:02;15.70;98.60
33831;DHT22;20137;48.834;8.732;2023-03-29T14:21:28;16.00;98.30
33831;DHT22;20137;48.834;8.732;2023-03-29T14:23:58;16.30;97.70
33831;DHT22;20137;48.834;8.732;2023-03-29T14:26:29;16.60;98.20
33831;DHT22;20137;48.834;8.732;2023-03-29T14:28:57;16.70;97.40
33831;DHT22;20137;48.834;8.732;2023-03-29T14:31:29;16.80;97.40
33831;DHT22;20137;48.834;8.732;2023-03-29T14:33:58;16.50;97.20
33831;DHT22;20137;48.834;8.732;2023-03-29T14:36:25;16.60;97.70
33831;DHT22;20137;48.834;8.732;2023-03-29T14:39:06;16.70;97.00
33831;DHT22;20137;48.834;8.732;2023-03-29T14:41:36;16.80;97.50
33831;DHT22;20137;48.834;8.732;2023-03-29T14:44:04;16.80;97.10
33831;DHT22;20137;48.834;8.732;2023-03-29T14:46:31;16.80;97.00
33831;DHT22;20137;48.834;8.732;2023-03-29T14:48:58;16.70;97.20
33831;DHT22;20137;48.834;8.732;2023-03-29T14:51:25;16.70;97.20
33831;DHT22;20137;48.834;8.732;2023-03-29T14:53:57;16.80;97.20
33831;DHT22;20137;48.834;8.732;2023-03-29T14:56:25;16.80;97.40
33831;DHT22;20137;48.834;8.732;2023-03-29T14:58:55;16.90;96.40
33831;DHT22;20137;48.834;8.732;2023-03-29T15:01:23;17.10;96.90
33831;DHT22;20137;48.834;8.732;2023-03-29T15:04:04;17.20;96.50
33831;DHT22;20137;48.834;8.732;2023-03-29T15:06:30;17.20;97.10
33831;DHT22;20137;48.834;8.732;2023-03-29T15:08:57;17.30;96.40
33831;DHT22;20137;48.834;8.732;2023-03-29T15:11:27;17.40;96.60
33831;DHT22;20137;48.834;8.732;2023-03-29T15:14:06;17.30;96.10
33831;DHT22;20137;48.834;8.732;2023-03-29T15:16:35;17.30;97.20
33831;DHT22;20137;48.834;8.732;2023-03-29T15:19:01;17.00;97.40
33831;DHT22;20137;48.834;8.732;2023-03-29T15:21:32;16.60;98.80
33831;DHT22;20137;48.834;8.732;2023-03-29T15:24:00;16.70;98.80
33831;DHT22;20137;48.834;8.732;2023-03-29T15:26:34;16.80;99.10
33831;DHT22;20137;48.834;8.732;2023-03-29T15:29:05;16.90;98.90
33831;DHT22;20137;48.834;8.732;2023-03-29T15:31:34;16.90;98.80
33831;DHT22;20137;48.834;8.732;2023-03-29T15:34:07;16.90;98.90
33831;DHT22;20137;48.834;8.732;2023-03-29T15:36:44;16.80;99.50
33831;DHT22;20137;48.834;8.732;2023-03-29T15:39:15;16.70;99.90
33831;DHT22;20137;48.834;8.732;2023-03-29T15:41:41;16.40;99.90
33831;DHT22;20137;48.834;8.732;2023-03-29T15:44:08;16.30;99.90
33831;DHT22;20137;48.834;8.732;2023-03-29T15:46:35;16.20;99.90
33831;DHT22;20137;48.834;8.732;2023-03-29T15:49:00;16.10;99.90
33831;DHT22;20137;48.834;8.732;2023-03-29T15:51:26;15.90;99.90
33831;DHT22;20137;48.834;8.732;2023-03-29T15:53:52;15.80;99.40
33831;DHT22;20137;48.834;8.732;2023-03-29T15:56:19;15.50;99.60
33831;DHT22;20137;48.834;8.732;2023-03-29T15:58:45;15.40;99.90
33831;DHT22;20137;48.834;8.732;2023-03-29T16:01:34;15.30;99.80
33831;DHT22;20137;48.834;8.732;2023-03-29T16:04:11;15.30;99.90
33831;DHT22;20137;48.834;8.732;2023-03-29T16:06:38;15.40;99.90
33831;DHT22;20137;48.834;8.732;2023-03-29T16:09:04;15.40;99.70
33831;DHT22;20137;48.834;8.732;2023-03-29T16:11:31;15.40;99.70
33831;DHT22;20137;48.834;8.732;2023-03-29T16:13:57;15.40;99.90
33831;DHT22;20137;48.834;8.732;2023-03-29T16:16:23;15.50;99.50
33831;DHT22;20137;48.834;8.732;2023-03-29T16:18:49;15.50;99.40
33831;DHT22;20137;48.834;8.732;2023-03-29T16:21:17;15.50;99.40
33831;DHT22;20137;48.834;8.732;2023-03-29T16:23:45;15.50;99.30
33831;DHT22;20137;48.834;8.732;2023-03-29T16:26:12;15.50;99.40
33831;DHT22;20137;48.834;8.732;2023-03-29T16:28:38;15.40;99.40
33831;DHT22;20137;48.834;8.732;2023-03-29T16:31:09;15.40;99.70
33831;DHT22;20137;48.834;8.732;2023-03-29T16:33:36;15.30;99.90
33831;DHT22;20137;48.834;8.732;2023-03-29T16:36:02;15.20;99.90
33831;DHT22;20137;48.834;8.732;2023-03-29T16:38:28;15.10;99.90
33831;DHT22;20137;48.834;8.732;2023-03-29T16:40:54;15.00;99.90
33831;DHT22;20137;48.834;8.732;2023-03-29T16:43:20;14.90;99.90
33831;DHT22;20137;48.834;8.732;2023-03-29T16:45:45;14.70;99.90
33831;DHT22;20137;48.834;8.732;2023-03-29T16:48:16;14.70;99.90
33831;DHT22;20137;48.834;8.732;2023-03-29T16:50:45;14.50;99.90
33831;DHT22;20137;48.834;8.732;2023-03-29T16:53:14;14.50;99.90
33831;DHT22;20137;48.834;8.732;2023-03-29T16:55:40;14.40;99.90
33831;DHT22;20137;48.834;8.732;2023-03-29T16:58:05;14.30;99.90
33831;DHT22;20137;48.834;8.732;2023-03-29T17:00:31;14.20;99.90
33831;DHT22;20137;48.834;8.732;2023-03-29T17:02:57;14.10;99.90
33831;DHT22;20137;48.834;8.732;2023-03-29T17:05:26;14.00;99.90
33831;DHT22;20137;48.834;8.732;2023-03-29T17:07:52;14.00;99.90
33831;DHT22;20137;48.834;8.732;2023-03-29T17:10:18;13.90;99.90
33831;DHT22;20137;48.834;8.732;2023-03-29T17:12:43;13.90;99.90
33831;DHT22;20137;48.834;8.732;2023-03-29T17:15:09;13.80;99.90
33831;DHT22;20137;48.834;8.732;2023-03-29T17:17:35;13.80;99.90
33831;DHT22;20137;48.834;8.732;2023-03-29T17:20:03;13.80;99.90
33831;DHT22;20137;48.834;8.732;2023-03-29T17:22:30;13.70;99.90
33831;DHT22;20137;48.834;8.732;2023-03-29T17:24:56;13.60;99.90
33831;DHT22;20137;48.834;8.732;2023-03-29T17:27:22;13.60;99.90
33831;DHT22;20137;48.834;8.732;2023-03-29T17:29:47;13.50;99.90
33831;DHT22;20137;48.834;8.732;2023-03-29T17:32:13;13.40;99.90
33831;DHT22;20137;48.834;8.732;2023-03-29T17:34:39;13.40;99.90
33831;DHT22;20137;48.834;8.732;2023-03-29T17:37:05;13.30;99.90
33831;DHT22;20137;48.834;8.732;2023-03-29T17:39:31;13.30;99.90
33831;DHT22;20137;48.834;8.732;2023-03-29T17:41:57;13.30;99.90
33831;DHT22;20137;48.834;8.732;2023-03-29T17:44:23;13.30;99.90
33831;DHT22;20137;48.834;8.732;2023-03-29T17:46:48;13.30;99.90
33831;DHT22;20137;48.834;8.732;2023-03-29T17:49:14;13.30;99.90